createdAt,value
2023-06-10T00:03:35.260Z,93876.00
2023-06-10T00:07:39.310Z,93868.00
2023-06-10T00:11:52.720Z,93877.00
2023-06-10T00:15:58.104Z,93875.00
2023-06-10T00:20:06.291Z,93880.00
2023-06-10T00:24:14.272Z,93880.00
2023-06-10T00:28:22.760Z,93875.00
2023-06-10T00:32:27.252Z,93865.00
2023-06-10T00:36:31.640Z,93862.00
2023-06-10T00:40:41.480Z,93882.00
2023-06-10T00:44:46.848Z,93878.00
2023-06-10T00:49:50.465Z,93885.00
2023-06-10T00:53:56.189Z,93878.00
2023-06-10T00:58:27.079Z,93885.00
2023-06-10T01:02:32.721Z,93892.00
2023-06-10T01:07:07.467Z,93894.00
2023-06-10T01:12:00.274Z,93891.00
2023-06-10T01:16:07.421Z,93887.00
2023-06-10T01:20:41.678Z,93891.00
2023-06-10T01:24:47.230Z,93884.00
2023-06-10T01:34:10.030Z,93890.00
2023-06-10T01:38:18.426Z,93896.00
2023-06-10T01:42:26.491Z,93903.00
2023-06-10T01:46:33.582Z,93888.00
2023-06-10T01:50:37.595Z,93892.00
2023-06-10T01:55:14.104Z,93903.00
2023-06-10T01:59:21.414Z,93897.00
2023-06-10T02:03:26.012Z,93898.00
2023-06-10T02:07:31.945Z,93893.00
2023-06-10T02:11:35.871Z,93896.00
2023-06-10T02:16:09.109Z,93897.00
2023-06-10T02:20:14.938Z,93899.00
2023-06-10T02:24:19.964Z,93896.00
2023-06-10T02:28:23.865Z,93896.00
2023-06-10T02:32:29.563Z,93893.00
2023-06-10T02:54:48.989Z,93903.00
2023-06-10T02:58:53.334Z,93891.00
2023-06-10T03:08:39.002Z,93890.00
2023-06-10T03:13:04.301Z,93898.00
2023-06-10T03:17:30.147Z,93891.00
2023-06-10T03:21:36.030Z,93894.00
2023-06-10T03:25:52.441Z,93898.00
2023-06-10T03:29:58.994Z,93909.00
2023-06-10T03:34:05.317Z,93900.00
2023-06-10T03:38:35.483Z,93906.00
2023-06-10T03:42:39.492Z,93900.00
2023-06-10T03:47:45.101Z,93904.00
2023-06-10T03:51:53.482Z,93903.00
2023-06-10T03:57:00.760Z,93919.00
2023-06-10T04:01:04.999Z,93915.00
2023-06-10T04:05:15.389Z,93916.00
2023-06-10T04:09:22.670Z,93922.00
2023-06-10T04:14:17.074Z,93921.00
2023-06-10T04:18:23.077Z,93916.00
2023-06-10T04:22:33.958Z,93908.00
2023-06-10T04:26:39.734Z,93930.00
2023-06-10T04:30:44.029Z,93928.00
2023-06-10T04:34:49.462Z,93933.00
2023-06-10T04:39:21.207Z,93920.00
2023-06-10T04:47:57.220Z,93914.00
2023-06-10T04:52:42.765Z,93937.00
2023-06-10T04:56:48.060Z,93932.00
2023-06-10T05:01:52.543Z,93945.00
2023-06-10T05:05:58.201Z,93940.00
2023-06-10T05:10:02.924Z,93942.00
2023-06-10T05:14:30.830Z,93946.00
2023-06-10T05:18:34.746Z,93933.00
2023-06-10T05:22:46.633Z,93922.00
2023-06-10T05:26:50.981Z,93935.00
2023-06-10T05:30:54.907Z,93937.00
2023-06-10T05:34:58.766Z,93937.00
2023-06-10T05:39:32.025Z,93942.00
2023-06-10T05:43:37.962Z,93944.00
2023-06-10T05:47:44.948Z,93952.00
2023-06-10T05:51:48.679Z,93947.00
2023-06-10T05:56:06.190Z,93936.00
2023-06-10T06:00:11.311Z,93953.00
2023-06-10T06:04:26.891Z,93942.00
2023-06-10T06:09:40.003Z,93942.00
2023-06-10T06:13:45.310Z,93947.00
2023-06-10T06:18:40.028Z,93949.00
2023-06-10T06:22:46.107Z,93948.00
2023-06-10T06:27:17.713Z,93941.00
2023-06-10T06:32:11.022Z,93954.00
2023-06-10T06:36:18.710Z,93959.00
2023-06-10T06:40:23.781Z,93947.00
2023-06-10T06:44:27.634Z,93939.00
2023-06-10T06:48:38.154Z,93942.00
2023-06-10T06:52:43.550Z,93939.00
2023-06-10T06:56:54.999Z,93943.00
2023-06-10T07:00:58.792Z,93945.00
2023-06-10T07:05:09.273Z,93958.00
2023-06-10T07:09:16.769Z,93951.00
2023-06-10T07:13:32.922Z,93968.00
2023-06-10T07:17:41.243Z,93958.00
2023-06-10T07:21:45.480Z,93958.00
2023-06-10T07:25:50.990Z,93967.00
2023-06-10T07:30:19.750Z,93972.00
2023-06-10T07:34:24.132Z,93973.00
2023-06-10T07:39:01.400Z,93975.00
2023-06-10T07:43:07.328Z,93967.00
2023-06-10T07:47:11.406Z,93968.00
2023-06-10T07:51:15.714Z,93968.00
2023-06-10T07:55:19.638Z,93970.00
2023-06-10T07:59:27.090Z,93973.00
2023-06-10T08:03:36.390Z,93976.00
2023-06-10T08:07:42.429Z,93978.00
2023-06-10T08:11:58.527Z,93978.00
2023-06-10T08:16:06.310Z,93970.00
2023-06-10T08:20:11.479Z,94000.00
2023-06-10T08:25:15.469Z,93988.00
2023-06-10T08:29:19.653Z,93990.00
2023-06-10T08:33:25.667Z,93993.00
2023-06-10T08:37:44.955Z,93988.00
2023-06-10T08:42:01.291Z,93977.00
2023-06-10T08:46:11.801Z,94005.00
2023-06-10T08:50:19.882Z,93990.00
2023-06-10T08:54:45.148Z,93986.00
2023-06-10T08:58:50.916Z,93991.00
2023-06-10T09:02:55.741Z,93981.00
2023-06-10T09:08:26.997Z,93986.00
2023-06-10T09:12:38.409Z,93975.00
2023-06-10T09:16:50.197Z,93978.00
2023-06-10T09:20:54.518Z,93992.00
2023-06-10T09:25:37.397Z,93996.00
2023-06-10T09:29:55.688Z,93993.00
2023-06-10T09:35:08.451Z,93993.00
2023-06-10T09:39:18.462Z,93967.00
2023-06-10T09:43:24.365Z,93971.00
2023-06-10T09:48:02.183Z,93996.00
2023-06-10T09:57:28.199Z,93978.00
2023-06-10T10:07:11.099Z,93993.00
2023-06-10T10:11:19.419Z,93991.00
2023-06-10T10:15:26.216Z,93969.00
2023-06-10T10:19:34.210Z,93973.00
2023-06-10T10:23:59.613Z,93968.00
2023-06-10T10:33:06.726Z,93968.00
2023-06-10T10:44:27.925Z,93965.00
2023-06-10T10:54:17.469Z,93958.00
2023-06-10T10:58:27.186Z,93953.00
2023-06-10T11:02:50.337Z,93953.00
2023-06-10T11:07:12.540Z,93952.00
2023-06-10T11:11:29.743Z,93947.00
2023-06-10T11:15:34.038Z,93954.00
2023-06-10T11:19:40.268Z,93944.00
2023-06-10T11:23:45.496Z,93942.00
2023-06-10T11:28:53.368Z,93946.00
2023-06-10T11:33:01.776Z,93952.00
2023-06-10T11:37:16.155Z,93953.00
2023-06-10T11:41:28.370Z,93949.00
2023-06-10T11:45:33.182Z,93955.00
2023-06-10T11:49:46.114Z,93956.00
2023-06-10T11:54:15.472Z,93960.00
2023-06-10T11:58:31.848Z,93967.00
2023-06-10T12:02:35.987Z,93982.00
2023-06-10T12:07:04.710Z,93978.00
2023-06-10T12:11:09.562Z,93964.00
2023-06-10T12:15:30.300Z,93968.00
2023-06-10T12:19:41.590Z,93982.00
2023-06-10T12:24:08.509Z,93957.00
2023-06-10T12:28:17.380Z,93962.00
2023-06-10T12:32:51.450Z,93957.00
2023-06-10T12:36:57.395Z,93963.00
2023-06-10T12:41:42.179Z,93976.00
2023-06-10T12:45:46.633Z,93958.00
2023-06-10T12:50:40.378Z,93971.00
2023-06-10T12:54:46.881Z,93951.00
2023-06-10T12:58:53.946Z,93955.00
2023-06-10T13:03:04.288Z,93949.00
2023-06-10T13:07:09.172Z,93944.00
2023-06-10T13:12:30.615Z,93951.00
2023-06-10T13:16:46.153Z,93935.00
2023-06-10T13:20:50.401Z,93930.00
2023-06-10T13:25:14.636Z,93954.00
2023-06-10T13:29:19.241Z,93934.00
2023-06-10T13:33:24.841Z,93935.00
2023-06-10T13:37:32.211Z,93931.00
2023-06-10T13:41:43.490Z,93930.00
2023-06-10T13:45:48.382Z,93930.00
2023-06-10T13:50:42.425Z,93959.00
2023-06-10T13:54:50.769Z,93954.00
2023-06-10T13:59:27.647Z,93960.00
2023-06-10T14:03:32.318Z,93955.00
2023-06-10T14:08:08.074Z,93962.00
2023-06-10T14:12:43.962Z,93959.00
2023-06-10T14:17:05.708Z,93935.00
2023-06-10T15:23:17.067Z,93979.00
2023-06-10T15:27:25.895Z,93975.00
2023-06-10T15:43:37.014Z,93958.00
2023-06-10T15:47:46.965Z,93959.00
2023-06-10T15:51:51.607Z,93960.00
2023-06-10T15:56:38.092Z,93965.00
2023-06-10T16:00:50.201Z,93966.00
2023-06-10T16:09:24.685Z,93948.00
2023-06-10T16:13:50.539Z,93954.00
2023-06-10T16:22:43.187Z,93943.00
2023-06-10T16:26:52.619Z,93961.00
2023-06-10T16:31:06.230Z,93972.00
2023-06-10T16:35:45.410Z,93969.00
2023-06-10T16:39:54.706Z,93999.00
2023-06-10T16:44:12.702Z,94004.00
2023-06-10T16:48:23.561Z,93999.00
2023-06-10T17:44:30.410Z,94055.00
2023-06-10T17:55:11.487Z,94058.00
2023-06-10T17:59:29.691Z,94039.00
2023-06-10T18:03:39.460Z,94062.00
2023-06-10T18:12:53.714Z,94064.00
2023-06-10T19:20:00.688Z,94092.00
2023-06-10T19:24:13.029Z,94098.00
2023-06-10T19:53:25.413Z,94092.00
2023-06-10T19:57:44.973Z,94085.00
2023-06-10T20:01:51.023Z,94104.00
2023-06-10T20:06:05.289Z,94099.00
2023-06-10T20:10:13.895Z,94088.00
2023-06-10T20:14:19.395Z,94104.00
2023-06-10T20:24:02.115Z,94081.00
2023-06-10T20:28:35.430Z,94089.00
2023-06-10T20:32:40.190Z,94083.00
2023-06-10T20:37:15.392Z,94102.00
2023-06-10T20:53:24.051Z,94103.00
2023-06-10T20:58:47.090Z,94111.00
2023-06-10T21:02:53.122Z,94103.00
2023-06-10T21:06:58.429Z,94111.00
2023-06-10T21:23:45.089Z,94116.00
2023-06-10T21:27:49.006Z,94109.00
2023-06-10T21:31:53.024Z,94111.00
2023-06-10T21:35:56.910Z,94112.00
2023-06-10T21:46:00.923Z,94113.00
2023-06-10T21:50:05.325Z,94103.00
2023-06-10T21:54:09.163Z,94116.00
2023-06-10T21:58:15.087Z,94116.00
2023-06-10T22:02:21.102Z,94106.00
2023-06-10T22:06:25.222Z,94092.00
2023-06-10T22:11:32.757Z,94116.00
2023-06-10T22:15:36.517Z,94111.00
2023-06-10T22:19:42.735Z,94088.00
2023-06-10T22:24:11.221Z,94108.00
2023-06-10T22:28:17.395Z,94103.00
2023-06-10T22:32:21.924Z,94096.00
2023-06-10T22:36:27.064Z,94103.00
2023-06-10T22:40:31.068Z,94099.00
2023-06-10T22:44:34.826Z,94096.00
2023-06-10T22:48:38.878Z,94097.00
2023-06-10T22:53:09.065Z,94094.00
2023-06-10T22:57:25.146Z,94082.00
2023-06-10T23:01:28.940Z,94083.00
2023-06-10T23:05:32.762Z,94084.00
2023-06-10T23:09:43.867Z,94086.00
2023-06-10T23:13:47.868Z,94086.00
2023-06-10T23:17:56.881Z,94083.00
2023-06-10T23:22:01.081Z,94083.00
2023-06-10T23:26:06.512Z,94077.00
2023-06-10T23:31:02.758Z,94075.00
2023-06-10T23:35:07.732Z,94074.00
2023-06-10T23:39:17.159Z,94075.00
2023-06-10T23:43:22.428Z,94075.00
2023-06-10T23:52:58.521Z,94082.00
2023-06-10T23:57:03.711Z,94077.00
